Time;durP1;ratioP1;P1;durP2;ratioP2;P2;SDS_P1;SDS_P2;PMS_P1;PMS_P2;Temp;Humidity;BMP_temperature;BMP_pressure;BME280_temperature;BME280_humidity;BME280_pressure;Samples;Min_cycle;Max_cycle;Signal;HPM_P1;HPM_P2
2023/08/06 00:02:01;;;;;;;3.88;2.30;;;;;;;16.60;100.00;99884.56;5109815;28;20035;-73
2023/08/06 00:04:31;;;;;;;3.90;2.40;;;;;;;16.50;100.00;99877.38;5110955;28;20070;-73
2023/08/06 00:07:02;;;;;;;4.43;2.53;;;;;;;16.51;100.00;99872.00;5109452;28;20019;-73
2023/08/06 00:09:32;;;;;;;5.03;2.33;;;;;;;16.53;100.00;99866.63;5121559;28;20094;-73
2023/08/06 00:12:03;;;;;;;4.13;2.40;;;;;;;16.50;100.00;99861.53;5122359;28;20031;-73
2023/08/06 00:14:33;;;;;;;4.57;2.42;;;;;;;16.48;100.00;99856.41;5109567;28;20461;-72
2023/08/06 00:17:04;;;;;;;5.97;2.33;;;;;;;16.57;100.00;99847.81;5110414;28;20069;-74
2023/08/06 00:19:35;;;;;;;4.20;2.40;;;;;;;16.53;100.00;99856.91;5110595;28;20039;-74
2023/08/06 00:22:05;;;;;;;3.28;2.38;;;;;;;16.52;100.00;99849.13;5110215;29;20023;-74
2023/08/06 00:24:35;;;;;;;2.88;2.20;;;;;;;16.38;100.00;99834.25;5108539;28;20031;-72
2023/08/06 00:27:06;;;;;;;2.85;2.13;;;;;;;16.54;100.00;99834.84;5109429;28;20106;-73
2023/08/06 00:29:36;;;;;;;4.60;2.03;;;;;;;16.71;100.00;99821.28;5109893;28;20558;-74
2023/08/06 00:32:06;;;;;;;4.03;2.00;;;;;;;16.88;100.00;99812.97;5107395;28;21221;-74
2023/08/06 00:34:36;;;;;;;2.75;1.80;;;;;;;16.78;100.00;99807.53;5108967;28;20035;-74
2023/08/06 00:37:07;;;;;;;4.03;2.10;;;;;;;16.75;100.00;99806.91;5105887;28;20109;-74
2023/08/06 00:39:37;;;;;;;5.63;2.17;;;;;;;16.69;100.00;99810.00;5108798;28;20163;-73
2023/08/06 00:42:07;;;;;;;2.78;1.65;;;;;;;16.77;100.00;99813.75;5106935;28;20516;-73
2023/08/06 00:44:38;;;;;;;2.53;1.73;;;;;;;16.83;100.00;99802.75;5108739;28;20089;-74
2023/08/06 00:47:09;;;;;;;2.75;1.75;;;;;;;16.69;100.00;99786.25;5118978;28;20547;-74
2023/08/06 00:49:40;;;;;;;2.15;1.38;;;;;;;16.80;100.00;99786.31;5104800;28;20032;-74
2023/08/06 00:52:10;;;;;;;3.85;1.95;;;;;;;16.75;100.00;99783.16;5106649;28;20469;-74
2023/08/06 00:54:41;;;;;;;4.63;1.70;;;;;;;16.69;100.00;99783.59;5108045;28;20031;-74
2023/08/06 00:57:12;;;;;;;2.83;1.65;;;;;;;16.80;100.00;99775.75;5107240;28;20116;-73
2023/08/06 00:59:42;;;;;;;2.78;1.75;;;;;;;16.77;100.00;99782.09;5106856;28;20044;-74
2023/08/06 01:02:12;;;;;;;4.78;1.65;;;;;;;16.62;100.00;99769.19;5110152;28;20575;-74
2023/08/06 01:04:42;;;;;;;3.08;1.80;;;;;;;16.59;100.00;99777.31;5106782;28;20051;-74
2023/08/06 01:07:41;;;;;;;4.22;1.70;;;;;;;16.66;100.00;99778.56;5105773;28;20110;-73
2023/08/06 01:10:29;;;;;;;2.83;1.45;;;;;;;16.50;100.00;99777.13;5108417;28;20118;-73
2023/08/06 01:13:16;;;;;;;3.65;1.58;;;;;;;16.39;100.00;99775.28;5106169;28;20038;-72
2023/08/06 01:15:50;;;;;;;3.65;1.73;;;;;;;16.39;100.00;99775.28;5106146;28;20428;-74
2023/08/06 01:18:20;;;;;;;2.85;1.50;;;;;;;16.41;100.00;99768.09;5110084;28;20489;-74
2023/08/06 01:20:50;;;;;;;2.95;1.50;;;;;;;16.44;100.00;99767.88;5106807;28;20042;-73
2023/08/06 01:23:21;;;;;;;2.13;1.60;;;;;;;16.37;100.00;99771.91;5106762;28;20165;-74
2023/08/06 01:26:05;;;;;;;5.47;1.92;;;;;;;16.23;100.00;99771.19;5197652;23;20132;-73
2023/08/06 01:28:57;;;;;;;3.47;2.13;;;;;;;16.28;100.00;99780.47;5212909;28;20075;-73
2023/08/06 01:31:31;;;;;;;4.53;2.60;;;;;;;16.27;100.00;99776.13;5216859;28;20020;-73
2023/08/06 01:34:04;;;;;;;4.38;2.28;;;;;;;16.26;100.00;99769.19;5212658;28;20028;-73
2023/08/06 01:36:36;;;;;;;5.10;2.85;;;;;;;16.32;100.00;99771.38;5207705;28;20025;-73
2023/08/06 01:39:06;;;;;;;3.47;2.40;;;;;;;16.34;100.00;99758.91;5190081;28;20026;-73
2023/08/06 01:41:36;;;;;;;4.20;2.50;;;;;;;16.29;100.00;99753.13;5192797;28;20033;-73
2023/08/06 01:44:06;;;;;;;4.13;2.13;;;;;;;16.34;100.00;99753.63;5192050;28;20721;-73
2023/08/06 01:46:37;;;;;;;2.88;2.10;;;;;;;16.32;100.00;99747.63;5189951;28;20713;-73
2023/08/06 01:49:07;;;;;;;3.10;2.33;;;;;;;16.32;100.00;99750.28;5194874;28;20040;-73
2023/08/06 01:51:37;;;;;;;5.10;2.30;;;;;;;16.23;100.00;99736.91;5193660;28;20033;-73
2023/08/06 01:54:08;;;;;;;5.13;2.42;;;;;;;16.25;100.00;99730.53;5190599;28;20111;-71
2023/08/06 01:56:38;;;;;;;4.10;1.98;;;;;;;16.31;100.00;99738.03;5194408;28;20026;-72
2023/08/06 01:59:08;;;;;;;3.20;2.13;;;;;;;16.23;100.00;99727.19;5191919;28;20050;-72
2023/08/06 02:01:38;;;;;;;5.15;2.58;;;;;;;16.28;100.00;99733.00;5190236;28;20649;-72
2023/08/06 02:04:09;;;;;;;4.18;2.38;;;;;;;16.18;100.00;99721.41;5193426;28;20143;-73
2023/08/06 02:06:39;;;;;;;3.78;2.13;;;;;;;16.08;100.00;99717.72;5188225;28;20372;-73
2023/08/06 02:09:09;;;;;;;7.30;2.22;;;;;;;16.08;100.00;99717.72;5189629;28;20022;-73
2023/08/06 02:11:40;;;;;;;3.63;2.30;;;;;;;16.10;100.00;99717.63;5186438;28;20384;-73
2023/08/06 02:14:10;;;;;;;3.97;2.45;;;;;;;16.05;100.00;99723.22;5195128;28;20080;-72
2023/08/06 02:16:40;;;;;;;4.75;2.30;;;;;;;16.09;100.00;99723.88;5186037;28;20025;-73
2023/08/06 02:19:10;;;;;;;4.28;2.10;;;;;;;16.00;100.00;99722.72;5188808;28;20026;-73
2023/08/06 02:21:41;;;;;;;3.58;2.20;;;;;;;16.04;100.00;99718.09;5193959;28;20360;-73
2023/08/06 02:24:11;;;;;;;3.65;2.22;;;;;;;16.08;100.00;99715.09;5193001;28;20022;-73
2023/08/06 02:26:41;;;;;;;5.30;2.13;;;;;;;16.13;100.00;99720.03;5192017;28;20320;-73
2023/08/06 02:29:12;;;;;;;4.78;2.35;;;;;;;16.14;100.00;99717.31;5216733;28;20056;-72
2023/08/06 02:31:42;;;;;;;4.38;2.30;;;;;;;16.15;100.00;99713.72;5200543;28;20036;-72
2023/08/06 02:34:12;;;;;;;4.50;2.30;;;;;;;16.21;100.00;99715.09;5216710;28;20017;-71
2023/08/06 02:36:43;;;;;;;6.50;2.30;;;;;;;16.06;100.00;99713.53;5199107;28;20048;-72
2023/08/06 02:39:14;;;;;;;5.00;2.15;;;;;;;16.09;100.00;99716.81;5211406;28;20032;-72
2023/08/06 02:41:44;;;;;;;3.63;2.42;;;;;;;16.05;100.00;99704.78;5211721;28;20116;-72
2023/08/06 02:44:14;;;;;;;2.80;2.13;;;;;;;16.02;100.00;99696.28;5210362;28;20029;-72
2023/08/06 02:46:45;;;;;;;3.63;2.08;;;;;;;16.13;100.00;99691.91;5191039;28;20049;-72
2023/08/06 02:49:15;;;;;;;2.70;1.90;;;;;;;16.09;100.00;99677.25;5208658;28;20095;-72
2023/08/06 02:51:46;;;;;;;2.55;1.85;;;;;;;16.06;100.00;99677.47;5219034;28;20056;-72
2023/08/06 02:54:16;;;;;;;2.65;1.98;;;;;;;16.10;100.00;99678.09;5197858;28;20021;-72
2023/08/06 02:56:46;;;;;;;4.57;2.45;;;;;;;16.14;100.00;99680.41;5195780;28;20021;-72
2023/08/06 02:59:16;;;;;;;3.35;2.08;;;;;;;15.98;100.00;99677.19;5217211;28;20029;-72
2023/08/06 03:01:47;;;;;;;3.95;2.47;;;;;;;15.95;100.00;99674.78;5219026;28;20029;-72
2023/08/06 03:04:18;;;;;;;4.43;2.67;;;;;;;15.91;100.00;99672.47;5218341;28;20086;-72
2023/08/06 03:06:51;;;;;;;5.63;2.63;;;;;;;15.90;100.00;99666.34;5213952;28;20559;-70
2023/08/06 03:09:21;;;;;;;5.85;3.00;;;;;;;15.91;100.00;99667.19;5218612;28;20501;-72
2023/08/06 03:11:52;;;;;;;9.75;2.67;;;;;;;15.88;100.00;99657.69;5217214;28;20056;-72
2023/08/06 03:14:22;;;;;;;3.85;2.38;;;;;;;15.81;100.00;99656.47;5217548;28;20033;-72
2023/08/06 03:16:52;;;;;;;4.75;2.67;;;;;;;15.88;100.00;99655.06;5217828;28;20013;-73
2023/08/06 03:19:22;;;;;;;3.20;2.65;;;;;;;15.89;100.00;99650.66;5217662;28;20662;-73
2023/08/06 03:21:53;;;;;;;4.10;2.50;;;;;;;15.86;100.00;99654.34;5216941;28;20063;-73
2023/08/06 03:24:23;;;;;;;4.57;2.72;;;;;;;15.82;100.00;99660.78;5218411;28;20501;-72
2023/08/06 03:26:53;;;;;;;7.57;2.90;;;;;;;15.90;100.00;99662.88;5198412;28;20079;-72
2023/08/06 03:29:23;;;;;;;5.13;2.97;;;;;;;15.85;100.00;99665.84;5218211;28;20108;-71
2023/08/06 03:31:54;;;;;;;6.03;2.90;;;;;;;15.78;100.00;99667.22;5216456;28;20410;-72
2023/08/06 03:34:24;;;;;;;4.38;2.63;;;;;;;15.77;100.00;99675.22;5215808;28;20021;-72
2023/08/06 03:36:54;;;;;;;5.10;2.65;;;;;;;15.85;100.00;99672.91;5215759;28;20118;-72
2023/08/06 03:39:25;;;;;;;4.60;2.58;;;;;;;15.91;100.00;99669.81;5213716;28;20283;-73
2023/08/06 03:41:55;;;;;;;7.47;3.28;;;;;;;15.91;100.00;99662.75;5217291;28;20025;-73
2023/08/06 03:44:28;;;;;;;6.47;3.03;;;;;;;15.88;100.00;99657.69;5217353;28;20513;-72
2023/08/06 03:46:58;;;;;;;5.65;3.13;;;;;;;15.83;100.00;99659.84;5192274;28;20414;-72
2023/08/06 03:49:28;;;;;;;4.35;2.80;;;;;;;15.97;100.00;99659.69;5215667;28;20025;-73
2023/08/06 03:51:58;;;;;;;6.55;3.20;;;;;;;15.85;100.00;99650.03;5199020;28;20307;-72
2023/08/06 03:54:29;;;;;;;6.60;3.22;;;;;;;15.89;100.00;99648.84;5199675;28;20035;-72
2023/08/06 03:57:00;;;;;;;6.72;3.00;;;;;;;15.94;100.00;99636.19;5190866;28;20151;-72
2023/08/06 03:59:30;;;;;;;4.88;3.22;;;;;;;15.98;100.00;99640.28;5217123;28;20677;-72
2023/08/06 04:02:00;;;;;;;8.35;3.10;;;;;;;15.92;100.00;99635.47;5216583;28;20028;-72
2023/08/06 04:04:31;;;;;;;4.38;2.88;;;;;;;15.98;100.00;99627.09;5216260;28;20039;-72
2023/08/06 04:07:01;;;;;;;10.45;4.35;;;;;;;15.92;100.00;99630.19;5216188;28;20103;-72
2023/08/06 04:09:31;;;;;;;7.60;3.05;;;;;;;15.94;100.00;99641.47;5213616;28;20158;-73
2023/08/06 04:12:02;;;;;;;4.97;3.00;;;;;;;16.01;100.00;99642.69;5216465;28;20032;-71
2023/08/06 04:14:33;;;;;;;8.75;2.70;;;;;;;15.86;100.00;99643.78;5218317;28;20036;-73
2023/08/06 04:17:03;;;;;;;9.75;2.78;;;;;;;15.84;100.00;99648.34;5210520;28;20017;-72
2023/08/06 04:19:34;;;;;;;5.78;2.90;;;;;;;15.86;100.00;99645.59;5206201;28;20017;-72
2023/08/06 04:22:04;;;;;;;10.00;2.80;;;;;;;15.94;100.00;99645.88;5194920;28;20548;-72
2023/08/06 04:24:34;;;;;;;5.47;3.00;;;;;;;16.08;100.00;99643.09;5205571;28;20188;-73
2023/08/06 04:27:05;;;;;;;5.03;3.38;;;;;;;15.97;100.00;99645.66;5208037;28;20383;-71
2023/08/06 04:29:36;;;;;;;12.15;3.42;;;;;;;16.05;100.00;99644.16;5217694;28;20025;-72
2023/08/06 04:32:08;;;;;;;4.30;3.10;;;;;;;16.05;100.00;99648.59;5209855;28;20022;-72
2023/08/06 04:34:38;;;;;;;6.32;3.53;;;;;;;16.00;100.00;99650.69;5212942;28;20498;-72
2023/08/06 04:37:09;;;;;;;4.20;3.08;;;;;;;15.98;100.00;99645.56;5206402;28;20043;-71
2023/08/06 04:39:39;;;;;;;4.88;2.85;;;;;;;15.95;100.00;99650.19;5210881;28;20036;-72
2023/08/06 04:42:09;;;;;;;4.82;2.88;;;;;;;15.96;100.00;99649.25;5209115;28;20036;-71
2023/08/06 04:44:39;;;;;;;5.43;2.92;;;;;;;15.86;100.00;99643.78;5207026;28;20031;-71
2023/08/06 04:47:10;;;;;;;10.65;3.42;;;;;;;15.95;100.00;99643.16;5213441;28;20041;-71
2023/08/06 04:49:40;;;;;;;5.10;2.88;;;;;;;15.96;100.00;99634.28;5212760;28;20301;-73
2023/08/06 04:52:10;;;;;;;5.32;2.40;;;;;;;16.00;100.00;99635.75;5212189;28;20518;-72
2023/08/06 04:54:41;;;;;;;8.90;3.30;;;;;;;16.02;100.00;99633.84;5207622;28;20277;-73
2023/08/06 04:57:11;;;;;;;5.75;2.97;;;;;;;16.08;100.00;99636.00;5209544;28;20112;-72
2023/08/06 04:59:41;;;;;;;6.25;3.30;;;;;;;16.08;100.00;99635.19;5206439;28;20030;-72
2023/08/06 05:02:11;;;;;;;6.65;3.05;;;;;;;16.00;100.00;99643.66;5209140;28;20092;-73
2023/08/06 05:04:42;;;;;;;4.82;3.00;;;;;;;16.02;100.00;99633.84;5207587;28;20025;-73
2023/08/06 05:07:12;;;;;;;6.97;2.85;;;;;;;16.14;100.00;99638.22;5190849;28;20030;-71
2023/08/06 05:09:42;;;;;;;4.68;3.17;;;;;;;16.10;100.00;99631.50;5209410;28;20112;-72
2023/08/06 05:12:13;;;;;;;8.45;3.15;;;;;;;16.22;100.00;99622.66;5193697;28;20119;-73
2023/08/06 05:14:43;;;;;;;9.50;3.20;;;;;;;16.17;100.00;99619.53;5209709;28;20025;-73
2023/08/06 05:17:13;;;;;;;6.75;3.15;;;;;;;16.28;100.00;99624.03;5214977;28;20108;-71
2023/08/06 05:19:43;;;;;;;5.47;3.40;;;;;;;16.28;100.00;99619.59;5210862;28;20052;-71
2023/08/06 05:22:14;;;;;;;5.72;3.60;;;;;;;16.26;100.00;99610.97;5211244;28;20029;-72
2023/08/06 05:24:44;;;;;;;5.10;2.72;;;;;;;16.31;100.00;99616.72;5198825;28;20033;-72
2023/08/06 05:27:14;;;;;;;6.00;3.08;;;;;;;16.50;100.00;99622.34;5212377;28;20100;-72
2023/08/06 05:29:45;;;;;;;4.03;2.58;;;;;;;16.53;100.00;99611.56;5212107;28;20083;-72
2023/08/06 05:32:15;;;;;;;6.22;3.00;;;;;;;16.56;100.00;99615.78;5216775;28;20433;-72
2023/08/06 05:34:46;;;;;;;5.32;3.03;;;;;;;16.73;100.00;99597.69;5211910;28;20025;-72
2023/08/06 05:37:16;;;;;;;7.10;3.10;;;;;;;16.77;100.00;99602.63;5215017;28;20030;-72
2023/08/06 05:39:46;;;;;;;4.88;2.95;;;;;;;16.92;100.00;99600.63;5212010;28;20287;-72
2023/08/06 05:42:16;;;;;;;4.10;2.45;;;;;;;17.01;100.00;99597.28;5212584;28;20075;-72
2023/08/06 05:44:47;;;;;;;4.90;2.70;;;;;;;16.98;100.00;99601.00;5210032;28;20035;-73
2023/08/06 05:47:17;;;;;;;5.55;3.08;;;;;;;16.90;100.00;99599.91;5194112;28;20029;-71
2023/08/06 05:49:47;;;;;;;6.63;3.00;;;;;;;16.89;100.00;99601.72;5212830;28;20495;-70
2023/08/06 05:52:17;;;;;;;4.85;2.83;;;;;;;16.86;100.00;99599.31;5209400;28;20217;-73
2023/08/06 05:54:48;;;;;;;6.90;3.17;;;;;;;16.94;100.00;99598.72;5198758;28;20040;-70
2023/08/06 05:57:18;;;;;;;6.55;2.88;;;;;;;16.96;100.00;99602.09;5214481;28;20031;-72
2023/08/06 05:59:48;;;;;;;5.70;2.78;;;;;;;16.94;100.00;99604.81;5213700;28;20041;-70
2023/08/06 06:02:19;;;;;;;4.05;2.70;;;;;;;17.04;100.00;99604.97;5215269;28;20479;-72
2023/08/06 06:04:49;;;;;;;8.52;3.22;;;;;;;17.08;100.00;99609.03;5211949;28;20100;-71
2023/08/06 06:07:19;;;;;;;6.45;3.10;;;;;;;17.05;100.00;99606.63;5211547;28;20040;-73
2023/08/06 06:09:50;;;;;;;4.72;2.92;;;;;;;17.25;100.00;99611.22;5211575;28;20044;-72
2023/08/06 06:12:22;;;;;;;4.57;2.63;;;;;;;17.19;100.00;99611.69;5214798;28;20029;-72
2023/08/06 06:14:52;;;;;;;4.65;2.80;;;;;;;17.08;100.00;99601.13;5211950;28;20490;-73
2023/08/06 06:17:22;;;;;;;4.53;2.90;;;;;;;17.19;100.00;99603.78;5210716;28;20082;-72
2023/08/06 06:19:53;;;;;;;4.30;2.80;;;;;;;17.16;100.00;99609.31;5212845;28;20331;-72
2023/08/06 06:22:23;;;;;;;4.35;2.60;;;;;;;17.30;100.00;99611.72;5213408;28;20040;-72
2023/08/06 06:24:53;;;;;;;4.50;2.60;;;;;;;17.34;100.00;99608.72;5208065;28;20048;-72
2023/08/06 06:27:24;;;;;;;3.25;2.10;;;;;;;17.32;100.00;99604.50;5214425;28;20044;-71
2023/08/06 06:29:54;;;;;;;4.15;2.25;;;;;;;17.52;100.00;99595.88;5212197;28;20356;-72
2023/08/06 06:32:25;;;;;;;4.80;2.30;;;;;;;17.49;100.00;99598.78;5209951;28;20025;-72
2023/08/06 06:34:55;;;;;;;3.95;2.35;;;;;;;17.50;100.00;99601.28;5212175;28;20380;-73
2023/08/06 06:37:25;;;;;;;7.32;2.28;;;;;;;17.34;100.00;99602.63;5214559;28;20049;-72
2023/08/06 06:39:56;;;;;;;4.60;1.88;;;;;;;17.66;100.00;99598.28;5194900;28;20047;-72
2023/08/06 06:42:26;;;;;;;2.92;2.13;;;;;;;17.82;100.00;99596.09;5214298;28;20083;-72
2023/08/06 06:44:56;;;;;;;4.28;2.20;;;;;;;17.89;100.00;99592.81;5208200;28;20031;-72
2023/08/06 06:47:27;;;;;;;3.73;2.33;;;;;;;17.91;100.00;99595.31;5215019;28;20028;-71
2023/08/06 06:49:57;;;;;;;6.45;2.40;;;;;;;17.72;100.00;99592.47;5218106;28;20777;-72
2023/08/06 06:52:27;;;;;;;3.33;2.03;;;;;;;18.06;100.00;99580.84;5211813;28;20028;-72
2023/08/06 06:54:57;;;;;;;4.43;2.00;;;;;;;18.64;100.00;99588.31;5206531;28;20446;-72
2023/08/06 06:57:28;;;;;;;7.82;2.13;;;;;;;19.15;100.00;99590.03;5208091;28;20109;-71
2023/08/06 06:59:58;;;;;;;4.07;1.50;;;;;;;19.44;100.00;99575.13;5212067;28;20079;-73
2023/08/06 07:02:28;;;;;;;3.17;1.90;;;;;;;20.15;100.00;99578.38;5211402;28;20283;-73
2023/08/06 07:04:58;;;;;;;3.40;1.60;;;;;;;19.35;100.00;99582.06;5210591;28;20035;-72
2023/08/06 07:07:29;;;;;;;4.63;1.80;;;;;;;19.52;100.00;99581.44;5210378;28;20299;-72
2023/08/06 07:09:59;;;;;;;7.72;1.52;;;;;;;20.61;100.00;99569.72;5193736;28;20367;-72
2023/08/06 07:12:30;;;;;;;1.77;0.93;;;;;;;20.96;100.00;99573.44;5213617;28;20025;-73
2023/08/06 07:15:00;;;;;;;2.07;1.20;;;;;;;21.20;96.71;99569.31;5206083;28;20267;-72
2023/08/06 07:17:30;;;;;;;1.83;0.90;;;;;;;21.96;88.07;99570.75;5195644;28;20268;-73
2023/08/06 07:20:00;;;;;;;2.08;1.05;;;;;;;21.22;100.00;99577.16;5213799;28;20561;-73
2023/08/06 07:22:31;;;;;;;2.15;1.00;;;;;;;21.61;95.30;99578.63;5194860;28;20026;-73
2023/08/06 07:25:01;;;;;;;2.13;0.88;;;;;;;22.61;91.32;99579.22;5203168;23;20047;-74
2023/08/06 07:27:32;;;;;;;1.55;0.90;;;;;;;22.37;92.96;99578.13;5148958;28;20481;-74
2023/08/06 07:30:05;;;;;;;1.13;0.80;;;;;;;21.83;98.45;99576.44;5147109;28;20022;-74
2023/08/06 07:32:35;;;;;;;2.45;1.08;;;;;;;21.75;99.13;99575.53;5153552;28;20023;-74
2023/08/06 07:35:07;;;;;;;1.53;0.90;;;;;;;21.81;98.56;99581.09;5144087;28;20162;-73
2023/08/06 07:37:38;;;;;;;1.80;0.90;;;;;;;22.64;91.64;99575.41;5137915;28;20782;-75
2023/08/06 07:40:09;;;;;;;1.95;0.80;;;;;;;23.18;89.92;99571.50;5140906;28;20046;-73
2023/08/06 07:42:39;;;;;;;1.90;0.90;;;;;;;21.77;95.01;99569.03;5138309;28;20507;-74
2023/08/06 07:45:10;;;;;;;3.70;0.80;;;;;;;21.89;90.66;99567.03;5140574;28;20470;-75
2023/08/06 07:47:40;;;;;;;1.65;1.13;;;;;;;21.86;94.38;99572.63;5135112;28;20298;-74
2023/08/06 07:50:11;;;;;;;1.75;0.80;;;;;;;21.99;95.62;99573.13;5141736;28;20035;-74
2023/08/06 07:52:41;;;;;;;5.38;1.10;;;;;;;21.86;90.78;99577.94;5135562;28;20042;-74
2023/08/06 07:55:11;;;;;;;1.30;0.80;;;;;;;23.06;86.66;99567.38;5139864;28;20034;-74
2023/08/06 07:57:42;;;;;;;1.93;0.77;;;;;;;22.75;87.32;99571.53;5143358;28;20360;-74
2023/08/06 08:00:12;;;;;;;1.50;0.60;;;;;;;22.85;87.77;99577.56;5140917;28;20637;-74
2023/08/06 08:02:42;;;;;;;1.50;0.70;;;;;;;22.63;87.42;99568.41;5138899;28;20317;-74
2023/08/06 08:05:13;;;;;;;1.60;0.80;;;;;;;24.09;81.72;99566.22;5139184;28;20014;-75
2023/08/06 08:07:44;;;;;;;0.60;0.60;;;;;;;25.56;73.70;99553.22;5142253;28;20715;-75
2023/08/06 08:10:14;;;;;;;3.25;0.73;;;;;;;25.00;77.88;99566.72;5142983;28;20057;-74
2023/08/06 08:12:47;;;;;;;1.17;0.73;;;;;;;26.02;74.74;99555.00;5140425;28;20061;-75
2023/08/06 08:15:18;;;;;;;1.70;0.80;;;;;;;26.59;76.83;99552.78;5140585;28;20274;-74
2023/08/06 08:17:48;;;;;;;1.38;0.70;;;;;;;25.91;72.53;99547.41;5145163;28;20502;-72
2023/08/06 08:20:18;;;;;;;0.83;0.60;;;;;;;26.47;75.60;99554.19;5138193;28;20062;-74
2023/08/06 08:22:49;;;;;;;1.70;0.70;;;;;;;24.77;81.20;99556.94;5135741;28;20277;-73
2023/08/06 08:25:19;;;;;;;1.30;0.80;;;;;;;25.06;78.72;99559.88;5139585;28;20053;-72
2023/08/06 08:27:49;;;;;;;1.50;0.70;;;;;;;25.49;79.91;99546.88;5145972;28;20050;-73
2023/08/06 08:30:20;;;;;;;1.47;0.80;;;;;;;25.92;75.72;99545.53;5141532;28;20285;-74
2023/08/06 08:32:50;;;;;;;2.58;0.77;;;;;;;25.32;81.02;99547.13;5130467;28;20389;-74
2023/08/06 08:35:21;;;;;;;1.42;0.57;;;;;;;25.94;76.53;99549.72;5136872;28;20068;-72
2023/08/06 08:37:51;;;;;;;2.07;0.80;;;;;;;25.17;73.63;99552.31;5133656;28;20049;-73
2023/08/06 08:40:29;;;;;;;1.05;0.70;;;;;;;25.66;77.78;99545.00;5131596;28;20355;-74
2023/08/06 08:43:00;;;;;;;0.93;0.65;;;;;;;25.54;76.02;99541.03;5135607;28;20030;-74
2023/08/06 08:45:38;;;;;;;2.83;0.60;;;;;;;26.45;75.12;99545.50;5139146;28;20527;-74
2023/08/06 08:48:13;;;;;;;2.25;0.80;;;;;;;24.34;80.58;99545.69;5135577;28;20034;-74
2023/08/06 08:50:44;;;;;;;;;;;;;;;26.10;77.65;99535.38;5140408;28;20029;-74
2023/08/06 08:53:16;;;;;;;1.48;0.90;;;;;;;24.58;77.87;99530.53;5140023;28;19953;-74
2023/08/06 08:55:49;;;;;;;1.85;0.70;;;;;;;24.73;77.98;99529.69;5140066;28;20142;-74
2023/08/06 08:58:20;;;;;;;1.48;0.68;;;;;;;25.52;75.65;99529.66;5140991;28;20117;-73
2023/08/06 09:00:51;;;;;;;1.88;0.80;;;;;;;25.52;76.31;99526.97;5147391;28;20133;-74
2023/08/06 09:03:22;;;;;;;2.38;0.85;;;;;;;25.12;74.62;99524.44;5138937;28;20057;-74
2023/08/06 09:05:55;;;;;;;2.45;0.82;;;;;;;26.48;72.08;99523.72;5150876;28;20062;-74
2023/08/06 09:08:30;;;;;;;1.38;0.70;;;;;;;26.00;72.44;99524.88;5145027;28;20569;-74
2023/08/06 09:11:02;;;;;;;1.58;0.70;;;;;;;26.33;71.77;99518.28;5143520;28;20539;-72
2023/08/06 09:13:32;;;;;;;1.77;0.93;;;;;;;25.87;72.39;99518.47;5138170;28;20039;-73
2023/08/06 09:16:03;;;;;;;1.67;0.83;;;;;;;25.70;73.96;99524.88;5133082;28;20042;-72
2023/08/06 09:18:34;;;;;;;1.63;0.70;;;;;;;25.54;72.62;99524.97;5125287;28;20267;-73
2023/08/06 09:21:04;;;;;;;4.17;0.80;;;;;;;25.88;71.18;99525.47;5127312;28;20019;-73
2023/08/06 09:23:34;;;;;;;3.10;0.80;;;;;;;26.00;71.54;99518.72;5135716;28;20278;-73
2023/08/06 09:26:04;;;;;;;3.50;0.90;;;;;;;24.83;72.94;99526.84;5129456;28;20642;-73
2023/08/06 09:28:43;;;;;;;3.03;0.80;;;;;;;24.83;75.25;99521.50;5135145;28;20309;-73
2023/08/06 09:31:13;;;;;;;1.85;0.77;;;;;;;25.49;73.61;99519.31;5135039;28;20293;-73
2023/08/06 09:33:45;;;;;;;1.45;1.00;;;;;;;24.58;73.72;99506.47;5131291;28;20038;-72
2023/08/06 09:36:15;;;;;;;1.65;0.90;;;;;;;25.58;74.01;99510.22;5137034;28;20551;-73
2023/08/06 09:38:45;;;;;;;1.73;1.10;;;;;;;24.74;75.20;99511.81;5129130;28;20047;-72
2023/08/06 09:41:28;;;;;;;1.85;0.85;;;;;;;23.87;78.25;99516.09;5131368;28;20039;-73
2023/08/06 09:43:58;;;;;;;6.30;1.05;;;;;;;24.40;77.73;99513.81;5138283;28;20038;-73
2023/08/06 09:46:32;;;;;;;0.98;0.80;;;;;;;25.37;73.20;99509.97;5129681;28;20039;-73
2023/08/06 09:49:03;;;;;;;2.88;0.93;;;;;;;25.02;74.20;99511.25;5125607;28;20118;-73
2023/08/06 09:51:34;;;;;;;2.25;0.90;;;;;;;24.41;75.26;99509.31;5124226;28;20047;-73
2023/08/06 09:54:07;;;;;;;2.10;0.85;;;;;;;24.05;77.58;99511.44;5125736;28;20039;-73
2023/08/06 09:56:38;;;;;;;1.13;0.77;;;;;;;24.69;76.78;99498.13;5143757;28;20488;-73
2023/08/06 09:59:10;;;;;;;0.90;0.82;;;;;;;25.10;77.99;99497.00;5127124;28;20046;-73
2023/08/06 10:01:41;;;;;;;2.15;0.75;;;;;;;24.63;78.80;99501.47;5125564;28;20434;-73
2023/08/06 10:04:15;;;;;;;2.03;1.00;;;;;;;24.74;77.45;99490.41;5125282;28;20223;-73
2023/08/06 10:06:49;;;;;;;2.53;0.82;;;;;;;24.50;75.99;99498.44;5123482;28;20038;-72
2023/08/06 10:09:20;;;;;;;1.55;0.77;;;;;;;24.58;74.31;99495.78;5131689;28;20392;-72
2023/08/06 10:11:52;;;;;;;2.30;0.90;;;;;;;24.25;74.81;99494.09;5126578;28;20034;-73
2023/08/06 10:14:30;;;;;;;2.08;1.08;;;;;;;23.76;74.13;99502.19;5131898;28;20447;-73
2023/08/06 10:17:01;;;;;;;1.33;0.85;;;;;;;23.60;74.98;99492.34;5129873;28;20031;-73
2023/08/06 10:19:32;;;;;;;4.22;1.02;;;;;;;23.98;75.76;99489.09;5133457;28;20070;-73
2023/08/06 10:22:17;;;;;;;1.50;0.70;;;;;;;24.30;77.63;99482.91;5128825;28;20038;-73
2023/08/06 10:24:54;;;;;;;4.50;1.10;;;;;;;24.35;72.26;99484.09;5132286;28;20312;-72
2023/08/06 10:27:40;;;;;;;2.40;0.80;;;;;;;24.06;75.83;99483.75;5135151;28;20810;-73
2023/08/06 10:30:31;;;;;;;2.17;1.10;;;;;;;23.67;71.93;99482.66;5129837;28;20582;-72
2023/08/06 10:33:03;;;;;;;3.88;1.23;;;;;;;23.76;74.85;99487.03;5133352;28;20124;-73
2023/08/06 10:35:50;;;;;;;1.77;0.70;;;;;;;23.74;71.55;99481.00;5130555;28;20049;-72
2023/08/06 10:38:21;;;;;;;1.17;0.63;;;;;;;23.95;71.94;99475.22;5131386;28;20544;-72
2023/08/06 10:40:52;;;;;;;1.30;0.80;;;;;;;23.86;71.25;99477.06;5129283;28;20477;-73
2023/08/06 10:43:25;;;;;;;1.53;0.80;;;;;;;23.70;73.61;99473.50;5137151;28;20026;-73
2023/08/06 10:45:57;;;;;;;1.92;1.00;;;;;;;23.62;73.34;99468.97;5137398;28;20786;-73
2023/08/06 10:48:38;;;;;;;2.10;1.00;;;;;;;23.85;78.41;99470.06;5131827;28;20192;-73
2023/08/06 10:51:10;;;;;;;2.30;0.80;;;;;;;23.80;73.50;99469.69;5130414;28;20099;-71
2023/08/06 10:53:50;;;;;;;1.38;0.70;;;;;;;24.00;72.35;99459.53;5133647;28;20330;-72
2023/08/06 10:56:22;;;;;;;2.13;0.90;;;;;;;24.25;74.86;99456.72;5133178;28;20074;-73
2023/08/06 10:58:56;;;;;;;1.70;0.80;;;;;;;24.37;74.63;99457.22;5132744;28;20037;-73
2023/08/06 11:01:29;;;;;;;1.67;0.82;;;;;;;24.24;75.05;99455.03;5148454;28;20051;-73
2023/08/06 11:04:02;;;;;;;3.10;1.27;;;;;;;23.98;74.30;99449.03;5125272;28;20333;-72
2023/08/06 11:06:33;;;;;;;1.38;0.80;;;;;;;23.97;76.71;99444.72;5128019;28;20039;-73
2023/08/06 11:09:03;;;;;;;1.25;1.00;;;;;;;24.23;73.29;99447.22;5131457;28;20103;-73
2023/08/06 11:11:34;;;;;;;1.00;0.80;;;;;;;24.19;74.74;99444.03;5134176;28;20134;-73
2023/08/06 11:14:04;;;;;;;1.58;0.70;;;;;;;24.35;71.53;99441.34;5134034;28;20033;-73
2023/08/06 11:16:35;;;;;;;1.13;0.70;;;;;;;24.18;68.26;99442.38;5125406;28;20257;-73
2023/08/06 11:19:08;;;;;;;1.77;0.93;;;;;;;24.13;69.41;99435.84;5126868;28;20038;-73
2023/08/06 11:21:39;;;;;;;0.82;0.70;;;;;;;24.02;69.81;99423.69;5134195;28;20049;-73
2023/08/06 11:24:10;;;;;;;1.75;0.70;;;;;;;23.75;69.04;99428.47;5134761;28;20510;-73
2023/08/06 11:26:40;;;;;;;1.02;0.70;;;;;;;23.79;71.56;99421.78;5128587;28;20455;-72
2023/08/06 11:29:11;;;;;;;0.95;0.70;;;;;;;23.81;73.85;99417.97;5129124;28;20038;-72
2023/08/06 11:31:41;;;;;;;1.55;0.82;;;;;;;23.96;71.89;99421.69;5131185;28;20037;-73
2023/08/06 11:34:11;;;;;;;1.65;0.80;;;;;;;24.10;71.15;99421.03;5133359;28;20379;-71
2023/08/06 11:36:42;;;;;;;0.93;0.68;;;;;;;24.37;70.61;99417.16;5136030;28;20121;-71
2023/08/06 11:39:13;;;;;;;1.05;0.68;;;;;;;24.10;72.04;99413.00;5134276;28;20022;-73
2023/08/06 11:41:44;;;;;;;1.42;0.80;;;;;;;24.23;70.54;99417.84;5127673;28;20486;-71
2023/08/06 11:44:15;;;;;;;1.00;0.70;;;;;;;23.67;71.75;99413.28;5134019;28;20096;-72
2023/08/06 11:46:52;;;;;;;1.13;0.77;;;;;;;24.02;74.31;99417.53;5131088;28;20030;-73
2023/08/06 11:49:48;;;;;;;2.80;1.05;;;;;;;24.02;72.44;99415.66;5141380;28;20204;-73